sensor_id;sensor_type;location;lat;lon;timestamp;pressure;altitude;pressure_sealevel;temperature;humidity
55656;BME280;41530;52.382;5.270;2023-04-01T00:01:27;99133.41;;;17.16;53.02
55656;BME280;41530;52.382;5.270;2023-04-01T00:03:54;99139.34;;;17.18;53.08
55656;BME280;41530;52.382;5.270;2023-04-01T00:06:21;99195.81;;;17.48;53.06
55656;BME280;41530;52.382;5.270;2023-04-01T00:08:48;99179.56;;;17.36;53.10
55656;BME280;41530;52.382;5.270;2023-04-01T00:11:15;99185.69;;;17.36;53.14
55656;BME280;41530;52.382;5.270;2023-04-01T00:13:45;99137.81;;;17.08;53.16
55656;BME280;41530;52.382;5.270;2023-04-01T00:16:17;99205.81;;;17.45;53.16
55656;BME280;41530;52.382;5.270;2023-04-01T00:18:50;99200.25;;;17.40;53.14
55656;BME280;41530;52.382;5.270;2023-04-01T00:21:24;99200.91;;;17.42;53.06
55656;BME280;41530;52.382;5.270;2023-04-01T00:23:51;99210.50;;;17.43;53.12
55656;BME280;41530;52.382;5.270;2023-04-01T00:26:23;99160.16;;;17.14;53.09
55656;BME280;41530;52.382;5.270;2023-04-01T00:28:51;99199.81;;;17.37;53.00
55656;BME280;41530;52.382;5.270;2023-04-01T00:31:28;99205.50;;;17.34;53.04
55656;BME280;41530;52.382;5.270;2023-04-01T00:33:58;99186.03;;;17.27;53.08
55656;BME280;41530;52.382;5.270;2023-04-01T00:36:28;99210.06;;;17.40;52.96
55656;BME280;41530;52.382;5.270;2023-04-01T00:38:58;99155.78;;;17.06;52.83
55656;BME280;41530;52.382;5.270;2023-04-01T00:41:29;99191.53;;;17.25;53.06
55656;BME280;41530;52.382;5.270;2023-04-01T00:44:33;99229.44;;;17.55;53.09
55656;BME280;41530;52.382;5.270;2023-04-01T00:47:01;99171.41;;;17.16;52.99
55656;BME280;41530;52.382;5.270;2023-04-01T00:49:34;99188.22;;;17.23;53.20
55656;BME280;41530;52.382;5.270;2023-04-01T00:52:07;99211.81;;;17.33;53.08
55656;BME280;41530;52.382;5.270;2023-04-01T00:54:38;99201.34;;;17.25;53.16
55656;BME280;41530;52.382;5.270;2023-04-01T00:59:54;99199.31;;;17.27;52.93
55656;BME280;41530;52.382;5.270;2023-04-01T01:02:31;99244.47;;;17.48;53.12
55656;BME280;41530;52.382;5.270;2023-04-01T01:04:59;99191.03;;;17.15;53.16
55656;BME280;41530;52.382;5.270;2023-04-01T01:10:18;99199.81;;;17.16;53.12
55656;BME280;41530;52.382;5.270;2023-04-01T01:15:37;99223.88;;;17.29;53.05
55656;BME280;41530;52.382;5.270;2023-04-01T01:24:26;99211.00;;;17.11;52.95
55656;BME280;41530;52.382;5.270;2023-04-01T01:35:30;99268.34;;;17.41;53.13
55656;BME280;41530;52.382;5.270;2023-04-01T01:38:13;99252.78;;;17.38;52.89
55656;BME280;41530;52.382;5.270;2023-04-01T01:40:43;99259.56;;;17.41;53.04
55656;BME280;41530;52.382;5.270;2023-04-01T01:43:14;99264.69;;;17.42;52.92
55656;BME280;41530;52.382;5.270;2023-04-01T01:45:49;99266.53;;;17.42;53.16
55656;BME280;41530;52.382;5.270;2023-04-01T01:48:17;99254.63;;;17.38;52.86
55656;BME280;41530;52.382;5.270;2023-04-01T01:50:47;99262.78;;;17.36;52.80
55656;BME280;41530;52.382;5.270;2023-04-01T01:53:15;99274.50;;;17.42;52.96
55656;BME280;41530;52.382;5.270;2023-04-01T01:55:44;99267.25;;;17.36;52.93
55656;BME280;41530;52.382;5.270;2023-04-01T01:58:20;99266.25;;;17.37;52.90
55656;BME280;41530;52.382;5.270;2023-04-01T02:00:52;99271.00;;;17.41;53.15
55656;BME280;41530;52.382;5.270;2023-04-01T02:03:21;99272.03;;;17.40;53.10
55656;BME280;41530;52.382;5.270;2023-04-01T02:05:50;99275.50;;;17.41;53.15
55656;BME280;41530;52.382;5.270;2023-04-01T02:08:22;99276.16;;;17.43;53.21
55656;BME280;41530;52.382;5.270;2023-04-01T02:11:03;99280.63;;;17.42;53.19
55656;BME280;41530;52.382;5.270;2023-04-01T02:13:37;99283.31;;;17.42;53.04
55656;BME280;41530;52.382;5.270;2023-04-01T02:16:13;99281.19;;;17.38;53.12
55656;BME280;41530;52.382;5.270;2023-04-01T02:18:43;99276.69;;;17.38;53.17
55656;BME280;41530;52.382;5.270;2023-04-01T02:21:12;99288.16;;;17.39;53.02
55656;BME280;41530;52.382;5.270;2023-04-01T02:23:40;99287.78;;;17.42;53.18
55656;BME280;41530;52.382;5.270;2023-04-01T02:26:07;99288.97;;;17.39;53.24
55656;BME280;41530;52.382;5.270;2023-04-01T02:28:37;99290.81;;;17.39;53.23
55656;BME280;41530;52.382;5.270;2023-04-01T02:31:05;99286.50;;;17.38;53.09
55656;BME280;41530;52.382;5.270;2023-04-01T02:33:32;99289.53;;;17.35;52.98
55656;BME280;41530;52.382;5.270;2023-04-01T02:35:59;99292.66;;;17.38;53.25
55656;BME280;41530;52.382;5.270;2023-04-01T02:38:26;99297.78;;;17.40;53.05
55656;BME280;41530;52.382;5.270;2023-04-01T02:40:58;99308.03;;;17.43;53.23
55656;BME280;41530;52.382;5.270;2023-04-01T02:43:25;99308.88;;;17.43;53.00
55656;BME280;41530;52.382;5.270;2023-04-01T02:45:52;99302.28;;;17.39;53.05
55656;BME280;41530;52.382;5.270;2023-04-01T02:48:18;99303.09;;;17.40;53.20
55656;BME280;41530;52.382;5.270;2023-04-01T02:50:45;99302.91;;;17.41;53.16
55656;BME280;41530;52.382;5.270;2023-04-01T02:53:12;99318.88;;;17.41;53.31
55656;BME280;41530;52.382;5.270;2023-04-01T02:55:39;99317.03;;;17.42;53.15
55656;BME280;41530;52.382;5.270;2023-04-01T02:58:06;99320.50;;;17.42;53.18
55656;BME280;41530;52.382;5.270;2023-04-01T03:00:32;99329.91;;;17.45;53.25
55656;BME280;41530;52.382;5.270;2023-04-01T03:02:59;99317.75;;;17.36;53.33
55656;BME280;41530;52.382;5.270;2023-04-01T03:05:26;99331.97;;;17.43;53.42
55656;BME280;41530;52.382;5.270;2023-04-01T03:07:53;99329.69;;;17.40;53.29
55656;BME280;41530;52.382;5.270;2023-04-01T03:10:20;99334.00;;;17.41;53.01
55656;BME280;41530;52.382;5.270;2023-04-01T03:12:47;99346.44;;;17.40;53.12
55656;BME280;41530;52.382;5.270;2023-04-01T03:15:13;99350.56;;;17.43;53.15
55656;BME280;41530;52.382;5.270;2023-04-01T03:17:42;99345.63;;;17.40;53.18
55656;BME280;41530;52.382;5.270;2023-04-01T03:20:10;99348.94;;;17.42;53.29
55656;BME280;41530;52.382;5.270;2023-04-01T03:22:37;99350.75;;;17.41;53.22
55656;BME280;41530;52.382;5.270;2023-04-01T03:25:08;99364.88;;;17.42;53.34
55656;BME280;41530;52.382;5.270;2023-04-01T03:27:35;99362.78;;;17.37;53.11
55656;BME280;41530;52.382;5.270;2023-04-01T03:30:06;99363.22;;;17.41;53.22
55656;BME280;41530;52.382;5.270;2023-04-01T03:32:33;99366.25;;;17.38;53.16
55656;BME280;41530;52.382;5.270;2023-04-01T03:35:00;99363.59;;;17.38;53.31
55656;BME280;41530;52.382;5.270;2023-04-01T03:37:26;99381.84;;;17.41;53.16
55656;BME280;41530;52.382;5.270;2023-04-01T03:39:53;99376.06;;;17.37;53.18
55656;BME280;41530;52.382;5.270;2023-04-01T03:42:19;99381.38;;;17.37;53.33
55656;BME280;41530;52.382;5.270;2023-04-01T03:44:46;99374.88;;;17.40;53.29
55656;BME280;41530;52.382;5.270;2023-04-01T03:47:13;99375.59;;;17.34;53.26
55656;BME280;41530;52.382;5.270;2023-04-01T03:49:39;99373.59;;;17.36;53.28
55656;BME280;41530;52.382;5.270;2023-04-01T03:52:09;99387.16;;;17.41;53.40
55656;BME280;41530;52.382;5.270;2023-04-01T03:54:37;99391.47;;;17.42;53.35
55656;BME280;41530;52.382;5.270;2023-04-01T03:57:04;99396.78;;;17.42;53.13
55656;BME280;41530;52.382;5.270;2023-04-01T03:59:31;99385.88;;;17.37;53.15
55656;BME280;41530;52.382;5.270;2023-04-01T04:01:58;99393.00;;;17.36;53.46
55656;BME280;41530;52.382;5.270;2023-04-01T04:04:24;99405.75;;;17.41;53.27
55656;BME280;41530;52.382;5.270;2023-04-01T04:06:53;99405.94;;;17.39;53.43
55656;BME280;41530;52.382;5.270;2023-04-01T04:09:20;99408.78;;;17.38;53.41
55656;BME280;41530;52.382;5.270;2023-04-01T04:11:47;99420.41;;;17.37;53.58
55656;BME280;41530;52.382;5.270;2023-04-01T04:14:13;99417.13;;;17.35;53.51
55656;BME280;41530;52.382;5.270;2023-04-01T04:16:40;99418.94;;;17.34;53.40
55656;BME280;41530;52.382;5.270;2023-04-01T04:19:07;99431.88;;;17.37;53.36
55656;BME280;41530;52.382;5.270;2023-04-01T04:21:33;99421.78;;;17.33;53.67
55656;BME280;41530;52.382;5.270;2023-04-01T04:24:00;99425.28;;;17.33;53.37
55656;BME280;41530;52.382;5.270;2023-04-01T04:26:27;99432.41;;;17.33;53.37
55656;BME280;41530;52.382;5.270;2023-04-01T04:28:54;99436.09;;;17.32;53.41
55656;BME280;41530;52.382;5.270;2023-04-01T04:31:23;99440.56;;;17.31;53.51
55656;BME280;41530;52.382;5.270;2023-04-01T04:33:50;99449.19;;;17.33;53.42
55656;BME280;41530;52.382;5.270;2023-04-01T04:36:18;99449.38;;;17.32;53.59
55656;BME280;41530;52.382;5.270;2023-04-01T04:38:45;99455.09;;;17.29;53.48
55656;BME280;41530;52.382;5.270;2023-04-01T04:41:13;99466.53;;;17.29;53.55
55656;BME280;41530;52.382;5.270;2023-04-01T04:43:41;99464.88;;;17.28;53.45
55656;BME280;41530;52.382;5.270;2023-04-01T04:46:10;99457.28;;;17.25;53.38
55656;BME280;41530;52.382;5.270;2023-04-01T04:48:37;99468.09;;;17.24;53.54
55656;BME280;41530;52.382;5.270;2023-04-01T04:51:04;99473.41;;;17.24;53.46
55656;BME280;41530;52.382;5.270;2023-04-01T04:53:31;99477.88;;;17.23;53.46
55656;BME280;41530;52.382;5.270;2023-04-01T04:55:57;99475.22;;;17.23;53.57
55656;BME280;41530;52.382;5.270;2023-04-01T04:58:24;99483.38;;;17.22;53.53
55656;BME280;41530;52.382;5.270;2023-04-01T05:00:50;99484.38;;;17.21;53.70
55656;BME280;41530;52.382;5.270;2023-04-01T05:03:17;99494.84;;;17.22;53.58
55656;BME280;41530;52.382;5.270;2023-04-01T05:05:51;99501.81;;;17.23;53.78
55656;BME280;41530;52.382;5.270;2023-04-01T05:08:19;99495.00;;;17.21;53.70
55656;BME280;41530;52.382;5.270;2023-04-01T05:10:45;99506.47;;;17.21;53.54
55656;BME280;41530;52.382;5.270;2023-04-01T05:13:12;99507.94;;;17.24;53.59
55656;BME280;41530;52.382;5.270;2023-04-01T05:15:39;99508.31;;;17.21;53.72
55656;BME280;41530;52.382;5.270;2023-04-01T05:18:05;99514.91;;;17.25;53.78
55656;BME280;41530;52.382;5.270;2023-04-01T05:20:32;99519.88;;;17.28;53.86
55656;BME280;41530;52.382;5.270;2023-04-01T05:22:59;99524.84;;;17.31;53.50
55656;BME280;41530;52.382;5.270;2023-04-01T05:25:26;99530.75;;;17.33;53.71
55656;BME280;41530;52.382;5.270;2023-04-01T05:27:53;99532.81;;;17.31;53.43
55656;BME280;41530;52.382;5.270;2023-04-01T05:30:20;99530.16;;;17.31;53.43
55656;BME280;41530;52.382;5.270;2023-04-01T05:32:47;99541.03;;;17.36;53.62
55656;BME280;41530;52.382;5.270;2023-04-01T05:35:13;99547.00;;;17.38;53.49
55656;BME280;41530;52.382;5.270;2023-04-01T05:37:40;99546.34;;;17.36;53.57
55656;BME280;41530;52.382;5.270;2023-04-01T05:40:09;99552.31;;;17.38;53.53
55656;BME280;41530;52.382;5.270;2023-04-01T05:42:36;99547.00;;;17.38;53.87
55656;BME280;41530;52.382;5.270;2023-04-01T05:45:04;99551.97;;;17.41;53.29
55656;BME280;41530;52.382;5.270;2023-04-01T05:47:31;99560.13;;;17.39;53.56
55656;BME280;41530;52.382;5.270;2023-04-01T05:49:58;99563.97;;;17.37;53.52
55656;BME280;41530;52.382;5.270;2023-04-01T05:52:24;99570.22;;;17.44;53.83
55656;BME280;41530;52.382;5.270;2023-04-01T05:54:51;99575.72;;;17.42;54.02
55656;BME280;41530;52.382;5.270;2023-04-01T05:57:18;99590.28;;;17.46;54.10
55656;BME280;41530;52.382;5.270;2023-04-01T05:59:44;99582.84;;;17.42;53.74
55656;BME280;41530;52.382;5.270;2023-04-01T06:02:12;99585.13;;;17.45;53.75
55656;BME280;41530;52.382;5.270;2023-04-01T06:04:40;99586.78;;;17.46;54.00
55656;BME280;41530;52.382;5.270;2023-04-01T06:07:14;99600.53;;;17.50;53.91
55656;BME280;41530;52.382;5.270;2023-04-01T06:09:42;99604.22;;;17.49;53.70
55656;BME280;41530;52.382;5.270;2023-04-01T06:25:27;99633.94;;;17.52;53.87
55656;BME280;41530;52.382;5.270;2023-04-01T06:28:20;99630.44;;;17.52;54.42
55656;BME280;41530;52.382;5.270;2023-04-01T06:31:03;99637.25;;;17.54;53.84
55656;BME280;41530;52.382;5.270;2023-04-01T06:47:30;99666.28;;;17.41;53.43
55656;BME280;41530;52.382;5.270;2023-04-01T06:52:53;99669.28;;;17.38;53.62
55656;BME280;41530;52.382;5.270;2023-04-01T06:56:05;99676.59;;;17.36;53.76
55656;BME280;41530;52.382;5.270;2023-04-01T06:58:49;99678.44;;;17.35;53.66
55656;BME280;41530;52.382;5.270;2023-04-01T07:01:22;99691.72;;;17.35;53.61
55656;BME280;41530;52.382;5.270;2023-04-01T07:03:57;99685.09;;;17.31;53.78
55656;BME280;41530;52.382;5.270;2023-04-01T07:06:30;99699.88;;;17.34;53.84
55656;BME280;41530;52.382;5.270;2023-04-01T07:09:05;99700.25;;;17.31;53.82
55656;BME280;41530;52.382;5.270;2023-04-01T07:11:35;99702.09;;;17.30;53.84
55656;BME280;41530;52.382;5.270;2023-04-01T07:14:34;99710.06;;;17.30;54.07
55656;BME280;41530;52.382;5.270;2023-04-01T07:19:45;99722.69;;;17.28;54.19
55656;BME280;41530;52.382;5.270;2023-04-01T07:22:23;99725.19;;;17.30;54.05
55656;BME280;41530;52.382;5.270;2023-04-01T07:24:53;99719.56;;;17.25;54.16
55656;BME280;41530;52.382;5.270;2023-04-01T07:27:20;99740.13;;;17.31;54.18
55656;BME280;41530;52.382;5.270;2023-04-01T07:29:46;99738.63;;;17.28;54.12
55656;BME280;41530;52.382;5.270;2023-04-01T07:32:21;99748.09;;;17.31;54.10
55656;BME280;41530;52.382;5.270;2023-04-01T07:35:13;99750.75;;;17.31;54.13
55656;BME280;41530;52.382;5.270;2023-04-01T07:38:10;99751.75;;;17.30;54.23
55656;BME280;41530;52.382;5.270;2023-04-01T07:43:35;99759.53;;;17.31;54.08
55656;BME280;41530;52.382;5.270;2023-04-01T07:49:01;99766.06;;;17.29;54.08
55656;BME280;41530;52.382;5.270;2023-04-01T07:54:35;99770.53;;;17.28;54.00
55656;BME280;41530;52.382;5.270;2023-04-01T07:57:34;99779.34;;;17.29;54.10
55656;BME280;41530;52.382;5.270;2023-04-01T08:02:43;99786.50;;;17.28;53.85
55656;BME280;41530;52.382;5.270;2023-04-01T08:07:50;99793.63;;;17.28;54.11
55656;BME280;41530;52.382;5.270;2023-04-01T08:18:36;99821.03;;;17.28;54.30
55656;BME280;41530;52.382;5.270;2023-04-01T08:21:25;99819.22;;;17.29;54.79
55656;BME280;41530;52.382;5.270;2023-04-01T08:23:57;99820.88;;;17.30;54.67
55656;BME280;41530;52.382;5.270;2023-04-01T08:26:51;99830.28;;;17.32;54.72
55656;BME280;41530;52.382;5.270;2023-04-01T08:29:34;99825.81;;;17.33;54.98
55656;BME280;41530;52.382;5.270;2023-04-01T08:32:19;99830.13;;;17.34;55.34
55656;BME280;41530;52.382;5.270;2023-04-01T08:35:02;99833.63;;;17.34;55.06
55656;BME280;41530;52.382;5.270;2023-04-01T08:37:36;99841.25;;;17.37;54.91
55656;BME280;41530;52.382;5.270;2023-04-01T08:40:42;99838.41;;;17.39;55.40
55656;BME280;41530;52.382;5.270;2023-04-01T08:51:37;99863.47;;;17.44;54.95
55656;BME280;41530;52.382;5.270;2023-04-01T09:02:49;99876.22;;;17.49;55.21
55656;BME280;41530;52.382;5.270;2023-04-01T09:05:31;99880.38;;;17.52;54.71
55656;BME280;41530;52.382;5.270;2023-04-01T09:22:41;99904.78;;;17.63;55.46
55656;BME280;41530;52.382;5.270;2023-04-01T09:25:23;99909.09;;;17.64;55.52
55656;BME280;41530;52.382;5.270;2023-04-01T09:28:02;99909.09;;;17.64;55.48
55656;BME280;41530;52.382;5.270;2023-04-01T09:34:10;99916.91;;;17.66;55.24
55656;BME280;41530;52.382;5.270;2023-04-01T09:39:35;99922.22;;;17.66;55.38
55656;BME280;41530;52.382;5.270;2023-04-01T09:45:01;99933.34;;;17.69;55.18
55656;BME280;41530;52.382;5.270;2023-04-01T09:53:41;99938.50;;;17.71;55.07
55656;BME280;41530;52.382;5.270;2023-04-01T10:04:23;99957.75;;;17.73;55.18
55656;BME280;41530;52.382;5.270;2023-04-01T10:20:17;99975.19;;;17.75;55.37
55656;BME280;41530;52.382;5.270;2023-04-01T10:32:51;99977.50;;;17.78;55.55
55656;BME280;41530;52.382;5.270;2023-04-01T10:40:51;99988.25;;;17.85;55.47
55656;BME280;41530;52.382;5.270;2023-04-01T10:52:32;99999.06;;;17.92;55.63
55656;BME280;41530;52.382;5.270;2023-04-01T11:01:05;100016.69;;;17.93;54.79
55656;BME280;41530;52.382;5.270;2023-04-01T11:26:00;100043.13;;;17.94;55.45
55656;BME280;41530;52.382;5.270;2023-04-01T11:31:37;100043.13;;;17.94;55.57
55656;BME280;41530;52.382;5.270;2023-04-01T11:40:08;100055.59;;;17.94;56.05
55656;BME280;41530;52.382;5.270;2023-04-01T11:42:51;100062.09;;;17.91;55.76
55656;BME280;41530;52.382;5.270;2023-04-01T11:45:35;100060.91;;;17.94;55.52
55656;BME280;41530;52.382;5.270;2023-04-01T11:51:45;100075.06;;;17.94;56.13
55656;BME280;41530;52.382;5.270;2023-04-01T12:05:54;100099.28;;;17.99;56.59
55656;BME280;41530;52.382;5.270;2023-04-01T12:11:17;100103.44;;;18.02;56.33
55656;BME280;41530;52.382;5.270;2023-04-01T12:14:21;100101.78;;;18.01;56.40
55656;BME280;41530;52.382;5.270;2023-04-01T12:20:20;100120.91;;;18.04;55.91
55656;BME280;41530;52.382;5.270;2023-04-01T12:23:01;100116.59;;;18.03;56.17
55656;BME280;41530;52.382;5.270;2023-04-01T12:25:54;100125.22;;;18.05;56.05
55656;BME280;41530;52.382;5.270;2023-04-01T12:28:44;100127.06;;;18.05;56.25
55656;BME280;41530;52.382;5.270;2023-04-01T12:33:55;100139.38;;;18.06;55.98
55656;BME280;41530;52.382;5.270;2023-04-01T13:09:15;100175.31;;;18.02;57.39
55656;BME280;41530;52.382;5.270;2023-04-01T13:12:05;100183.94;;;18.04;57.02
55656;BME280;41530;52.382;5.270;2023-04-01T13:31:43;100220.03;;;18.06;56.40
55656;BME280;41530;52.382;5.270;2023-04-01T13:42:29;100231.34;;;18.08;56.88
55656;BME280;41530;52.382;5.270;2023-04-01T13:56:40;100256.16;;;18.09;56.92
55656;BME280;41530;52.382;5.270;2023-04-01T13:59:50;100257.97;;;18.08;56.58
55656;BME280;41530;52.382;5.270;2023-04-01T14:08:20;100272.28;;;18.07;56.92
55656;BME280;41530;52.382;5.270;2023-04-01T14:11:03;100268.13;;;18.05;57.17
55656;BME280;41530;52.382;5.270;2023-04-01T14:25:32;100304.56;;;18.04;57.07
55656;BME280;41530;52.382;5.270;2023-04-01T14:49:35;100347.63;;;18.08;56.68
55656;BME280;41530;52.382;5.270;2023-04-01T14:52:10;100340.81;;;18.05;56.07
55656;BME280;41530;52.382;5.270;2023-04-01T14:54:38;100356.47;;;18.08;56.27
55656;BME280;41530;52.382;5.270;2023-04-01T14:57:20;100353.97;;;18.07;56.24
55656;BME280;41530;52.382;5.270;2023-04-01T15:00:00;100357.47;;;18.07;56.17
55656;BME280;41530;52.382;5.270;2023-04-01T15:02:37;100367.94;;;18.09;56.08
55656;BME280;41530;52.382;5.270;2023-04-01T15:07:59;100374.25;;;18.08;56.44
55656;BME280;41530;52.382;5.270;2023-04-01T15:16:45;100393.22;;;18.05;56.37
55656;BME280;41530;52.382;5.270;2023-04-01T15:30:19;100426.00;;;18.05;56.47
55656;BME280;41530;52.382;5.270;2023-04-01T15:35:42;100434.81;;;18.06;56.23
55656;BME280;41530;52.382;5.270;2023-04-01T15:38:41;100440.28;;;18.04;56.29
55656;BME280;41530;52.382;5.270;2023-04-01T15:41:23;100440.47;;;18.03;56.31
55656;BME280;41530;52.382;5.270;2023-04-01T15:43:52;100451.09;;;18.03;56.18
55656;BME280;41530;52.382;5.270;2023-04-01T15:46:32;100454.75;;;18.02;56.07
55656;BME280;41530;52.382;5.270;2023-04-01T15:49:12;100461.59;;;18.04;56.07
55656;BME280;41530;52.382;5.270;2023-04-01T15:51:45;100471.41;;;18.04;56.06
55656;BME280;41530;52.382;5.270;2023-04-01T15:57:28;100474.06;;;18.04;55.96
55656;BME280;41530;52.382;5.270;2023-04-01T16:02:46;100491.88;;;18.03;56.01
55656;BME280;41530;52.382;5.270;2023-04-01T16:19:56;100526.78;;;18.00;55.96
55656;BME280;41530;52.382;5.270;2023-04-01T16:22:39;100531.13;;;18.01;56.11
55656;BME280;41530;52.382;5.270;2023-04-01T16:25:33;100548.91;;;18.01;56.15
55656;BME280;41530;52.382;5.270;2023-04-01T16:36:53;100569.53;;;17.99;55.92
55656;BME280;41530;52.382;5.270;2023-04-01T16:39:41;100563.56;;;17.97;55.69
55656;BME280;41530;52.382;5.270;2023-04-01T16:42:19;100574.19;;;17.97;56.05
55656;BME280;41530;52.382;5.270;2023-04-01T16:47:30;100584.00;;;17.96;56.22
55656;BME280;41530;52.382;5.270;2023-04-01T16:50:20;100597.13;;;17.98;56.18
55656;BME280;41530;52.382;5.270;2023-04-01T16:55:20;100605.31;;;17.96;56.05
55656;BME280;41530;52.382;5.270;2023-04-01T16:57:52;100614.78;;;17.99;56.03
55656;BME280;41530;52.382;5.270;2023-04-01T17:05:52;100626.41;;;17.98;56.55
55656;BME280;41530;52.382;5.270;2023-04-01T17:08:47;100631.72;;;17.98;56.37
55656;BME280;41530;52.382;5.270;2023-04-01T17:35:50;100703.94;;;17.95;55.55
55656;BME280;41530;52.382;5.270;2023-04-01T17:41:36;100719.91;;;17.95;55.53
55656;BME280;41530;52.382;5.270;2023-04-01T17:46:33;100725.22;;;17.95;55.57
55656;BME280;41530;52.382;5.270;2023-04-01T17:52:00;100731.00;;;17.90;55.46
55656;BME280;41530;52.382;5.270;2023-04-01T17:54:58;100746.66;;;17.93;55.37
55656;BME280;41530;52.382;5.270;2023-04-01T18:17:21;100808.34;;;17.89;55.24
55656;BME280;41530;52.382;5.270;2023-04-01T18:22:36;100814.81;;;17.86;55.50
55656;BME280;41530;52.382;5.270;2023-04-01T18:27:52;100838.44;;;17.89;55.51
55656;BME280;41530;52.382;5.270;2023-04-01T18:30:31;100832.44;;;17.87;55.27
55656;BME280;41530;52.382;5.270;2023-04-01T18:33:09;100847.28;;;17.90;55.21
55656;BME280;41530;52.382;5.270;2023-04-01T18:38:20;100862.56;;;17.88;55.30
55656;BME280;41530;52.382;5.270;2023-04-01T18:55:30;100902.63;;;17.86;55.42
55656;BME280;41530;52.382;5.270;2023-04-01T18:58:13;100907.94;;;17.86;55.54
55656;BME280;41530;52.382;5.270;2023-04-01T19:03:31;100918.59;;;17.86;55.16
55656;BME280;41530;52.382;5.270;2023-04-01T19:06:00;100929.38;;;17.85;55.15
55656;BME280;41530;52.382;5.270;2023-04-01T19:08:31;100933.22;;;17.82;54.98
55656;BME280;41530;52.382;5.270;2023-04-01T19:11:23;100949.69;;;17.86;55.04
55656;BME280;41530;52.382;5.270;2023-04-01T19:21:57;100972.13;;;17.83;54.82
55656;BME280;41530;52.382;5.270;2023-04-01T19:27:34;100984.47;;;17.84;55.00
55656;BME280;41530;52.382;5.270;2023-04-01T19:33:22;101001.41;;;17.83;55.27
55656;BME280;41530;52.382;5.270;2023-04-01T19:35:58;100999.59;;;17.84;55.24
55656;BME280;41530;52.382;5.270;2023-04-01T19:41:30;101014.72;;;17.83;55.22
55656;BME280;41530;52.382;5.270;2023-04-01T19:46:51;101024.66;;;17.81;55.04
55656;BME280;41530;52.382;5.270;2023-04-01T19:52:31;101036.00;;;17.83;55.34
55656;BME280;41530;52.382;5.270;2023-04-01T19:57:59;101047.78;;;17.80;54.79
55656;BME280;41530;52.382;5.270;2023-04-01T20:00:37;101055.78;;;17.80;54.90
55656;BME280;41530;52.382;5.270;2023-04-01T20:08:19;101078.88;;;17.80;54.83
55656;BME280;41530;52.382;5.270;2023-04-01T20:16:04;101091.06;;;17.83;55.23
55656;BME280;41530;52.382;5.270;2023-04-01T20:18:39;101096.38;;;17.83;54.97
55656;BME280;41530;52.382;5.270;2023-04-01T20:23:52;101110.66;;;17.82;54.98
55656;BME280;41530;52.382;5.270;2023-04-01T20:26:23;101115.28;;;17.79;54.86
55656;BME280;41530;52.382;5.270;2023-04-01T20:29:36;101123.97;;;17.82;54.75
55656;BME280;41530;52.382;5.270;2023-04-01T20:31:43;101124.13;;;17.80;54.41
55656;BME280;41530;52.382;5.270;2023-04-01T20:37:21;101139.09;;;17.81;54.60
55656;BME280;41530;52.382;5.270;2023-04-01T20:40:35;101150.72;;;17.80;54.81
55656;BME280;41530;52.382;5.270;2023-04-01T20:51:30;101183.66;;;17.79;54.65
55656;BME280;41530;52.382;5.270;2023-04-01T20:54:30;101183.78;;;17.77;54.30
55656;BME280;41530;52.382;5.270;2023-04-01T20:57:16;101195.28;;;17.78;54.63
55656;BME280;41530;52.382;5.270;2023-04-01T21:08:32;101214.88;;;17.77;54.59
55656;BME280;41530;52.382;5.270;2023-04-01T21:25:17;101248.78;;;17.75;54.72
55656;BME280;41530;52.382;5.270;2023-04-01T21:34:25;101261.25;;;17.74;54.40
55656;BME280;41530;52.382;5.270;2023-04-01T21:50:18;101291.09;;;17.68;53.36
55656;BME280;41530;52.382;5.270;2023-04-01T21:53:11;101295.72;;;17.66;53.31
55656;BME280;41530;52.382;5.270;2023-04-01T22:06:42;101316.53;;;17.61;53.21
55656;BME280;41530;52.382;5.270;2023-04-01T22:09:15;101324.53;;;17.61;53.09
55656;BME280;41530;52.382;5.270;2023-04-01T22:11:57;101335.31;;;17.60;52.89
55656;BME280;41530;52.382;5.270;2023-04-01T22:15:04;101333.09;;;17.55;52.77
55656;BME280;41530;52.382;5.270;2023-04-01T22:17:50;101341.19;;;17.54;52.62
55656;BME280;41530;52.382;5.270;2023-04-01T22:20:35;101349.88;;;17.56;52.86
55656;BME280;41530;52.382;5.270;2023-04-01T22:26:08;101352.81;;;17.53;52.51
55656;BME280;41530;52.382;5.270;2023-04-01T22:34:14;101359.53;;;17.47;52.47
55656;BME280;41530;52.382;5.270;2023-04-01T22:39:43;101378.84;;;17.49;52.31
55656;BME280;41530;52.382;5.270;2023-04-01T22:50:32;101395.38;;;17.43;52.11
55656;BME280;41530;52.382;5.270;2023-04-01T22:56:12;101406.00;;;17.43;52.12
55656;BME280;41530;52.382;5.270;2023-04-01T22:58:50;101418.59;;;17.41;52.04
55656;BME280;41530;52.382;5.270;2023-04-01T23:01:24;101421.13;;;17.42;51.97
55656;BME280;41530;52.382;5.270;2023-04-01T23:03:52;101423.94;;;17.41;52.12
55656;BME280;41530;52.382;5.270;2023-04-01T23:06:26;101433.72;;;17.40;52.04
55656;BME280;41530;52.382;5.270;2023-04-01T23:09:17;101434.56;;;17.41;51.96
55656;BME280;41530;52.382;5.270;2023-04-01T23:25:16;101457.22;;;17.35;51.73
55656;BME280;41530;52.382;5.270;2023-04-01T23:27:50;101474.72;;;17.38;51.93
55656;BME280;41530;52.382;5.270;2023-04-01T23:38:37;101490.38;;;17.31;51.75
55656;BME280;41530;52.382;5.270;2023-04-01T23:41:05;101497.25;;;17.34;51.82
55656;BME280;41530;52.382;5.270;2023-04-01T23:43:39;101499.19;;;17.32;51.71
55656;BME280;41530;52.382;5.270;2023-04-01T23:46:08;101493.88;;;17.32;51.86
55656;BME280;41530;52.382;5.270;2023-04-01T23:48:41;101507.16;;;17.32;51.62
55656;BME280;41530;52.382;5.270;2023-04-01T23:51:21;101508.16;;;17.31;51.55
55656;BME280;41530;52.382;5.270;2023-04-01T23:54:03;101517.13;;;17.30;51.56
55656;BME280;41530;52.382;5.270;2023-04-01T23:56:44;101519.06;;;17.28;51.29
55656;BME280;41530;52.382;5.270;2023-04-01T23:59:28;101518.22;;;17.27;51.71
